sensor_id;sensor_type;location;lat;lon;timestamp;temperature;humidity
25628;DHT22;40915;50.826;4.356;2022-07-29T00:01:46;19.60;99.90
25628;DHT22;40915;50.826;4.356;2022-07-29T00:04:12;19.60;99.90
25628;DHT22;40915;50.826;4.356;2022-07-29T00:06:38;19.50;99.90
25628;DHT22;40915;50.826;4.356;2022-07-29T00:09:04;19.50;99.90
25628;DHT22;40915;50.826;4.356;2022-07-29T00:11:29;19.50;99.90
25628;DHT22;40915;50.826;4.356;2022-07-29T00:13:55;19.60;99.90
25628;DHT22;40915;50.826;4.356;2022-07-29T00:16:20;19.50;99.90
25628;DHT22;40915;50.826;4.356;2022-07-29T00:18:46;19.50;99.90
25628;DHT22;40915;50.826;4.356;2022-07-29T00:21:12;19.50;99.90
25628;DHT22;40915;50.826;4.356;2022-07-29T00:23:37;19.50;99.90
25628;DHT22;40915;50.826;4.356;2022-07-29T00:26:03;19.50;99.90
25628;DHT22;40915;50.826;4.356;2022-07-29T00:28:28;19.50;99.90
25628;DHT22;40915;50.826;4.356;2022-07-29T00:30:54;19.40;99.90
25628;DHT22;40915;50.826;4.356;2022-07-29T00:33:20;19.40;99.90
25628;DHT22;40915;50.826;4.356;2022-07-29T00:35:45;19.30;99.90
25628;DHT22;40915;50.826;4.356;2022-07-29T00:38:18;19.30;99.90
25628;DHT22;40915;50.826;4.356;2022-07-29T00:40:45;19.30;99.90
25628;DHT22;40915;50.826;4.356;2022-07-29T00:43:12;19.30;99.90
25628;DHT22;40915;50.826;4.356;2022-07-29T00:45:39;19.40;99.90
25628;DHT22;40915;50.826;4.356;2022-07-29T00:48:05;19.30;99.90
25628;DHT22;40915;50.826;4.356;2022-07-29T00:50:32;19.30;99.90
25628;DHT22;40915;50.826;4.356;2022-07-29T00:52:58;19.30;99.90
25628;DHT22;40915;50.826;4.356;2022-07-29T00:55:24;19.30;99.90
25628;DHT22;40915;50.826;4.356;2022-07-29T00:57:50;19.30;99.90
25628;DHT22;40915;50.826;4.356;2022-07-29T01:00:21;19.40;99.90
25628;DHT22;40915;50.826;4.356;2022-07-29T01:02:48;19.10;99.90
25628;DHT22;40915;50.826;4.356;2022-07-29T01:05:15;19.10;99.90
25628;DHT22;40915;50.826;4.356;2022-07-29T01:07:42;19.10;99.90
25628;DHT22;40915;50.826;4.356;2022-07-29T01:10:09;19.00;99.90
25628;DHT22;40915;50.826;4.356;2022-07-29T01:12:36;19.10;99.90
25628;DHT22;40915;50.826;4.356;2022-07-29T01:15:05;19.00;99.90
25628;DHT22;40915;50.826;4.356;2022-07-29T01:20:03;18.90;99.90
25628;DHT22;40915;50.826;4.356;2022-07-29T01:25:05;18.80;99.90
25628;DHT22;40915;50.826;4.356;2022-07-29T01:27:51;18.80;99.90
25628;DHT22;40915;50.826;4.356;2022-07-29T01:30:21;19.40;99.90
25628;DHT22;40915;50.826;4.356;2022-07-29T01:32:50;18.70;99.90
25628;DHT22;40915;50.826;4.356;2022-07-29T01:35:25;18.70;99.90
25628;DHT22;40915;50.826;4.356;2022-07-29T04:33:39;17.30;99.90
25628;DHT22;40915;50.826;4.356;2022-07-29T04:36:05;17.20;99.90
25628;DHT22;40915;50.826;4.356;2022-07-29T04:38:30;17.20;99.90
25628;DHT22;40915;50.826;4.356;2022-07-29T04:40:56;17.10;99.90
25628;DHT22;40915;50.826;4.356;2022-07-29T04:43:22;17.20;99.90
25628;DHT22;40915;50.826;4.356;2022-07-29T04:45:47;17.20;99.90
25628;DHT22;40915;50.826;4.356;2022-07-29T04:48:13;17.20;99.90
25628;DHT22;40915;50.826;4.356;2022-07-29T04:50:39;17.20;99.90
25628;DHT22;40915;50.826;4.356;2022-07-29T04:53:05;17.20;99.90
25628;DHT22;40915;50.826;4.356;2022-07-29T04:55:31;17.20;99.90
25628;DHT22;40915;50.826;4.356;2022-07-29T04:57:56;17.20;99.90
25628;DHT22;40915;50.826;4.356;2022-07-29T05:00:22;17.10;99.90
25628;DHT22;40915;50.826;4.356;2022-07-29T05:02:49;17.10;99.90
25628;DHT22;40915;50.826;4.356;2022-07-29T05:05:14;17.10;99.90
25628;DHT22;40915;50.826;4.356;2022-07-29T05:07:40;17.20;99.90
25628;DHT22;40915;50.826;4.356;2022-07-29T05:10:07;17.20;99.90
25628;DHT22;40915;50.826;4.356;2022-07-29T05:12:33;17.30;99.90
25628;DHT22;40915;50.826;4.356;2022-07-29T05:14:58;17.20;99.90
25628;DHT22;40915;50.826;4.356;2022-07-29T05:17:24;17.20;99.90
25628;DHT22;40915;50.826;4.356;2022-07-29T05:19:49;17.30;99.90
25628;DHT22;40915;50.826;4.356;2022-07-29T05:22:17;17.30;99.90
25628;DHT22;40915;50.826;4.356;2022-07-29T05:24:43;17.40;99.90
25628;DHT22;40915;50.826;4.356;2022-07-29T05:27:09;17.50;99.90
25628;DHT22;40915;50.826;4.356;2022-07-29T05:29:35;17.40;99.90
25628;DHT22;40915;50.826;4.356;2022-07-29T05:32:00;17.50;99.90
25628;DHT22;40915;50.826;4.356;2022-07-29T05:34:26;17.50;99.90
25628;DHT22;40915;50.826;4.356;2022-07-29T05:36:52;17.50;99.90
25628;DHT22;40915;50.826;4.356;2022-07-29T05:39:18;17.60;99.90
25628;DHT22;40915;50.826;4.356;2022-07-29T05:41:43;17.70;99.90
25628;DHT22;40915;50.826;4.356;2022-07-29T05:44:09;17.80;99.90
25628;DHT22;40915;50.826;4.356;2022-07-29T05:46:34;17.90;99.90
25628;DHT22;40915;50.826;4.356;2022-07-29T05:49:00;17.90;99.90
25628;DHT22;40915;50.826;4.356;2022-07-29T05:51:26;17.80;99.90
25628;DHT22;40915;50.826;4.356;2022-07-29T05:53:52;17.80;99.90
25628;DHT22;40915;50.826;4.356;2022-07-29T05:56:17;17.80;99.90
25628;DHT22;40915;50.826;4.356;2022-07-29T05:58:43;17.80;99.90
25628;DHT22;40915;50.826;4.356;2022-07-29T06:01:09;17.90;99.90
25628;DHT22;40915;50.826;4.356;2022-07-29T06:03:35;17.90;99.90
25628;DHT22;40915;50.826;4.356;2022-07-29T06:06:03;17.90;99.90
25628;DHT22;40915;50.826;4.356;2022-07-29T06:08:28;17.90;99.90
25628;DHT22;40915;50.826;4.356;2022-07-29T06:10:54;18.00;99.90
25628;DHT22;40915;50.826;4.356;2022-07-29T06:13:20;18.10;99.90
25628;DHT22;40915;50.826;4.356;2022-07-29T06:15:45;18.20;99.90
25628;DHT22;40915;50.826;4.356;2022-07-29T06:18:12;18.60;99.90
25628;DHT22;40915;50.826;4.356;2022-07-29T06:20:38;19.20;99.90
25628;DHT22;40915;50.826;4.356;2022-07-29T06:23:04;19.80;99.90
25628;DHT22;40915;50.826;4.356;2022-07-29T06:25:30;20.60;99.90
25628;DHT22;40915;50.826;4.356;2022-07-29T06:30:26;22.50;99.90
25628;DHT22;40915;50.826;4.356;2022-07-29T06:37:47;25.00;99.90
25628;DHT22;40915;50.826;4.356;2022-07-29T06:40:12;25.20;99.90
25628;DHT22;40915;50.826;4.356;2022-07-29T06:42:57;25.30;99.90
25628;DHT22;40915;50.826;4.356;2022-07-29T06:45:22;25.30;99.90
25628;DHT22;40915;50.826;4.356;2022-07-29T06:47:49;25.70;99.90
25628;DHT22;40915;50.826;4.356;2022-07-29T06:50:15;26.20;99.90
25628;DHT22;40915;50.826;4.356;2022-07-29T06:52:41;26.30;99.90
25628;DHT22;40915;50.826;4.356;2022-07-29T06:55:08;26.00;99.90
25628;DHT22;40915;50.826;4.356;2022-07-29T06:57:34;25.80;99.90
25628;DHT22;40915;50.826;4.356;2022-07-29T07:00:00;25.40;99.90
25628;DHT22;40915;50.826;4.356;2022-07-29T07:02:26;25.20;99.90
25628;DHT22;40915;50.826;4.356;2022-07-29T07:04:51;24.70;99.90
25628;DHT22;40915;50.826;4.356;2022-07-29T07:07:17;24.20;99.90
25628;DHT22;40915;50.826;4.356;2022-07-29T07:09:43;23.90;99.90
25628;DHT22;40915;50.826;4.356;2022-07-29T07:12:08;23.50;99.90
25628;DHT22;40915;50.826;4.356;2022-07-29T07:14:34;23.30;99.90
25628;DHT22;40915;50.826;4.356;2022-07-29T07:16:59;23.10;99.90
25628;DHT22;40915;50.826;4.356;2022-07-29T07:19:26;22.90;99.90
25628;DHT22;40915;50.826;4.356;2022-07-29T07:21:52;22.50;99.90
25628;DHT22;40915;50.826;4.356;2022-07-29T07:24:18;22.40;99.90
25628;DHT22;40915;50.826;4.356;2022-07-29T07:26:44;22.40;99.90
25628;DHT22;40915;50.826;4.356;2022-07-29T07:29:10;22.90;99.90
25628;DHT22;40915;50.826;4.356;2022-07-29T07:31:37;23.30;99.90
25628;DHT22;40915;50.826;4.356;2022-07-29T07:34:02;23.70;99.90
25628;DHT22;40915;50.826;4.356;2022-07-29T07:36:28;24.70;99.90
25628;DHT22;40915;50.826;4.356;2022-07-29T07:38:53;25.20;99.90
25628;DHT22;40915;50.826;4.356;2022-07-29T07:41:20;26.20;99.90
25628;DHT22;40915;50.826;4.356;2022-07-29T07:43:46;26.70;99.90
25628;DHT22;40915;50.826;4.356;2022-07-29T07:46:11;27.40;99.90
25628;DHT22;40915;50.826;4.356;2022-07-29T08:55:04;24.80;99.90
25628;DHT22;40915;50.826;4.356;2022-07-29T08:57:31;24.30;99.90
25628;DHT22;40915;50.826;4.356;2022-07-29T09:00:00;23.90;99.90
25628;DHT22;40915;50.826;4.356;2022-07-29T09:02:29;23.70;99.90
25628;DHT22;40915;50.826;4.356;2022-07-29T09:04:56;23.40;99.90
25628;DHT22;40915;50.826;4.356;2022-07-29T09:07:23;23.30;99.90
25628;DHT22;40915;50.826;4.356;2022-07-29T09:09:49;23.20;99.90
25628;DHT22;40915;50.826;4.356;2022-07-29T09:12:15;23.00;99.90
25628;DHT22;40915;50.826;4.356;2022-07-29T09:14:41;22.80;99.90
25628;DHT22;40915;50.826;4.356;2022-07-29T09:17:07;22.70;99.90
25628;DHT22;40915;50.826;4.356;2022-07-29T09:19:34;22.70;99.90
25628;DHT22;40915;50.826;4.356;2022-07-29T09:22:05;22.70;99.90
25628;DHT22;40915;50.826;4.356;2022-07-29T09:27:00;22.70;99.90
25628;DHT22;40915;50.826;4.356;2022-07-29T09:29:27;22.70;99.90
25628;DHT22;40915;50.826;4.356;2022-07-29T09:31:54;22.70;99.90
25628;DHT22;40915;50.826;4.356;2022-07-29T09:34:28;22.80;99.90
25628;DHT22;40915;50.826;4.356;2022-07-29T09:36:55;22.90;99.90
25628;DHT22;40915;50.826;4.356;2022-07-29T09:39:31;22.90;99.90
25628;DHT22;40915;50.826;4.356;2022-07-29T09:41:59;23.00;99.90
25628;DHT22;40915;50.826;4.356;2022-07-29T09:44:25;23.00;99.90
25628;DHT22;40915;50.826;4.356;2022-07-29T09:47:03;23.10;99.90
25628;DHT22;40915;50.826;4.356;2022-07-29T09:52:17;23.10;99.90
25628;DHT22;40915;50.826;4.356;2022-07-29T09:54:43;23.10;99.90
25628;DHT22;40915;50.826;4.356;2022-07-29T09:57:27;22.90;99.90
25628;DHT22;40915;50.826;4.356;2022-07-29T10:02:22;23.20;99.90
25628;DHT22;40915;50.826;4.356;2022-07-29T10:04:48;23.20;99.90
25628;DHT22;40915;50.826;4.356;2022-07-29T10:07:14;23.40;99.90
25628;DHT22;40915;50.826;4.356;2022-07-29T10:09:53;23.40;99.90
25628;DHT22;40915;50.826;4.356;2022-07-29T10:12:20;23.20;99.90
25628;DHT22;40915;50.826;4.356;2022-07-29T10:14:46;23.30;99.90
25628;DHT22;40915;50.826;4.356;2022-07-29T10:17:12;23.30;99.90
25628;DHT22;40915;50.826;4.356;2022-07-29T10:19:38;23.40;99.90
25628;DHT22;40915;50.826;4.356;2022-07-29T10:22:07;23.50;99.90
25628;DHT22;40915;50.826;4.356;2022-07-29T10:24:34;23.60;99.90
25628;DHT22;40915;50.826;4.356;2022-07-29T10:27:03;23.70;99.90
25628;DHT22;40915;50.826;4.356;2022-07-29T10:29:29;23.70;99.90
25628;DHT22;40915;50.826;4.356;2022-07-29T10:32:26;23.90;99.90
25628;DHT22;40915;50.826;4.356;2022-07-29T10:35:06;23.80;99.90
25628;DHT22;40915;50.826;4.356;2022-07-29T10:43:43;23.90;99.90
25628;DHT22;40915;50.826;4.356;2022-07-29T10:46:10;24.00;99.90
25628;DHT22;40915;50.826;4.356;2022-07-29T10:49:05;24.00;99.90
25628;DHT22;40915;50.826;4.356;2022-07-29T11:05:14;24.50;99.90
25628;DHT22;40915;50.826;4.356;2022-07-29T11:10:33;24.80;99.90
25628;DHT22;40915;50.826;4.356;2022-07-29T11:12:59;24.70;99.90
25628;DHT22;40915;50.826;4.356;2022-07-29T11:15:24;24.60;99.90
25628;DHT22;40915;50.826;4.356;2022-07-29T11:20:49;24.50;99.90
25628;DHT22;40915;50.826;4.356;2022-07-29T11:23:26;24.50;99.90
25628;DHT22;40915;50.826;4.356;2022-07-29T11:28:49;24.30;99.90
25628;DHT22;40915;50.826;4.356;2022-07-29T11:31:19;24.50;99.90
25628;DHT22;40915;50.826;4.356;2022-07-29T11:33:45;24.70;99.90
25628;DHT22;40915;50.826;4.356;2022-07-29T11:36:12;24.90;99.90
25628;DHT22;40915;50.826;4.356;2022-07-29T11:38:38;25.00;99.90
25628;DHT22;40915;50.826;4.356;2022-07-29T11:41:23;25.20;99.90
25628;DHT22;40915;50.826;4.356;2022-07-29T11:43:53;25.20;99.90
25628;DHT22;40915;50.826;4.356;2022-07-29T11:46:48;25.30;99.90
25628;DHT22;40915;50.826;4.356;2022-07-29T11:49:21;25.30;99.90
25628;DHT22;40915;50.826;4.356;2022-07-29T11:51:54;25.30;99.90
25628;DHT22;40915;50.826;4.356;2022-07-29T11:54:31;25.30;99.90
25628;DHT22;40915;50.826;4.356;2022-07-29T11:56:58;25.40;99.90
25628;DHT22;40915;50.826;4.356;2022-07-29T11:59:25;25.50;99.90
25628;DHT22;40915;50.826;4.356;2022-07-29T12:01:55;25.60;99.90
25628;DHT22;40915;50.826;4.356;2022-07-29T12:04:21;25.70;99.90
25628;DHT22;40915;50.826;4.356;2022-07-29T12:06:52;25.60;99.90
25628;DHT22;40915;50.826;4.356;2022-07-29T12:09:19;25.70;99.90
25628;DHT22;40915;50.826;4.356;2022-07-29T12:11:46;25.70;99.90
25628;DHT22;40915;50.826;4.356;2022-07-29T12:14:30;25.60;99.90
25628;DHT22;40915;50.826;4.356;2022-07-29T12:16:57;25.50;99.90
25628;DHT22;40915;50.826;4.356;2022-07-29T12:19:22;25.40;99.90
25628;DHT22;40915;50.826;4.356;2022-07-29T12:21:50;25.40;99.90
25628;DHT22;40915;50.826;4.356;2022-07-29T12:24:18;25.60;99.90
25628;DHT22;40915;50.826;4.356;2022-07-29T12:26:53;25.70;99.90
25628;DHT22;40915;50.826;4.356;2022-07-29T12:29:19;25.80;99.90
25628;DHT22;40915;50.826;4.356;2022-07-29T12:31:46;26.00;99.90
25628;DHT22;40915;50.826;4.356;2022-07-29T12:34:13;26.30;99.90
25628;DHT22;40915;50.826;4.356;2022-07-29T12:36:40;26.50;99.90
25628;DHT22;40915;50.826;4.356;2022-07-29T12:39:06;26.40;99.90
25628;DHT22;40915;50.826;4.356;2022-07-29T12:41:31;26.40;99.90
25628;DHT22;40915;50.826;4.356;2022-07-29T12:43:57;26.40;99.90
25628;DHT22;40915;50.826;4.356;2022-07-29T12:46:23;26.40;99.90
25628;DHT22;40915;50.826;4.356;2022-07-29T12:48:53;26.40;99.90
25628;DHT22;40915;50.826;4.356;2022-07-29T12:51:33;26.40;99.90
25628;DHT22;40915;50.826;4.356;2022-07-29T12:54:08;26.50;99.90
25628;DHT22;40915;50.826;4.356;2022-07-29T12:56:36;26.70;99.90
25628;DHT22;40915;50.826;4.356;2022-07-29T12:59:13;26.80;99.90
25628;DHT22;40915;50.826;4.356;2022-07-29T13:01:39;26.80;99.90
25628;DHT22;40915;50.826;4.356;2022-07-29T13:04:04;26.70;99.90
25628;DHT22;40915;50.826;4.356;2022-07-29T13:11:34;26.70;99.90
25628;DHT22;40915;50.826;4.356;2022-07-29T13:14:00;26.60;99.90
25628;DHT22;40915;50.826;4.356;2022-07-29T13:16:25;26.60;99.90
25628;DHT22;40915;50.826;4.356;2022-07-29T13:19:04;26.50;99.90
25628;DHT22;40915;50.826;4.356;2022-07-29T13:21:30;26.50;99.90
25628;DHT22;40915;50.826;4.356;2022-07-29T13:23:55;26.50;99.90
25628;DHT22;40915;50.826;4.356;2022-07-29T13:26:21;26.50;99.90
25628;DHT22;40915;50.826;4.356;2022-07-29T13:28:47;26.60;99.90
25628;DHT22;40915;50.826;4.356;2022-07-29T13:31:12;26.50;99.90
25628;DHT22;40915;50.826;4.356;2022-07-29T13:33:38;26.60;99.90
25628;DHT22;40915;50.826;4.356;2022-07-29T13:36:03;26.80;99.90
25628;DHT22;40915;50.826;4.356;2022-07-29T13:38:29;26.80;99.90
25628;DHT22;40915;50.826;4.356;2022-07-29T13:40:55;26.70;99.90
25628;DHT22;40915;50.826;4.356;2022-07-29T13:43:20;26.70;99.90
25628;DHT22;40915;50.826;4.356;2022-07-29T13:45:46;26.80;99.90
25628;DHT22;40915;50.826;4.356;2022-07-29T13:48:11;26.80;99.90
25628;DHT22;40915;50.826;4.356;2022-07-29T13:50:37;26.90;99.90
25628;DHT22;40915;50.826;4.356;2022-07-29T13:53:03;27.00;99.90
25628;DHT22;40915;50.826;4.356;2022-07-29T13:55:29;26.80;99.90
25628;DHT22;40915;50.826;4.356;2022-07-29T13:57:54;26.80;99.90
25628;DHT22;40915;50.826;4.356;2022-07-29T14:00:20;26.80;99.90
25628;DHT22;40915;50.826;4.356;2022-07-29T14:02:46;26.60;99.90
25628;DHT22;40915;50.826;4.356;2022-07-29T14:05:12;26.70;99.90
25628;DHT22;40915;50.826;4.356;2022-07-29T14:07:38;26.80;99.90
25628;DHT22;40915;50.826;4.356;2022-07-29T14:10:07;26.80;99.90
25628;DHT22;40915;50.826;4.356;2022-07-29T14:12:33;26.80;99.90
25628;DHT22;40915;50.826;4.356;2022-07-29T14:14:58;26.90;99.80
25628;DHT22;40915;50.826;4.356;2022-07-29T14:17:24;27.00;99.70
25628;DHT22;40915;50.826;4.356;2022-07-29T14:19:49;26.90;99.50
25628;DHT22;40915;50.826;4.356;2022-07-29T14:22:15;27.00;98.70
25628;DHT22;40915;50.826;4.356;2022-07-29T14:24:41;27.00;98.40
25628;DHT22;40915;50.826;4.356;2022-07-29T14:27:07;26.90;99.30
25628;DHT22;40915;50.826;4.356;2022-07-29T14:29:33;26.40;99.90
25628;DHT22;40915;50.826;4.356;2022-07-29T14:31:59;26.40;99.90
25628;DHT22;40915;50.826;4.356;2022-07-29T14:34:25;26.40;99.90
25628;DHT22;40915;50.826;4.356;2022-07-29T14:36:50;26.30;99.90
25628;DHT22;40915;50.826;4.356;2022-07-29T14:39:16;26.40;99.90
25628;DHT22;40915;50.826;4.356;2022-07-29T14:41:42;26.30;99.90
25628;DHT22;40915;50.826;4.356;2022-07-29T14:44:08;26.20;99.90
25628;DHT22;40915;50.826;4.356;2022-07-29T14:46:33;26.20;99.90
25628;DHT22;40915;50.826;4.356;2022-07-29T14:48:59;26.30;99.90
25628;DHT22;40915;50.826;4.356;2022-07-29T14:51:25;26.30;99.90
25628;DHT22;40915;50.826;4.356;2022-07-29T14:53:50;26.60;99.70
25628;DHT22;40915;50.826;4.356;2022-07-29T14:56:16;26.90;98.90
25628;DHT22;40915;50.826;4.356;2022-07-29T14:58:42;26.90;98.40
25628;DHT22;40915;50.826;4.356;2022-07-29T15:01:07;27.10;98.60
25628;DHT22;40915;50.826;4.356;2022-07-29T15:03:33;27.10;98.80
25628;DHT22;40915;50.826;4.356;2022-07-29T15:05:58;27.30;99.20
25628;DHT22;40915;50.826;4.356;2022-07-29T15:08:24;27.20;99.60
25628;DHT22;40915;50.826;4.356;2022-07-29T15:10:50;27.00;99.70
25628;DHT22;40915;50.826;4.356;2022-07-29T15:13:16;26.90;99.70
25628;DHT22;40915;50.826;4.356;2022-07-29T15:15:42;26.90;99.60
25628;DHT22;40915;50.826;4.356;2022-07-29T15:18:07;27.00;99.50
25628;DHT22;40915;50.826;4.356;2022-07-29T15:20:34;27.10;99.40
25628;DHT22;40915;50.826;4.356;2022-07-29T15:23:00;27.10;99.20
25628;DHT22;40915;50.826;4.356;2022-07-29T15:25:26;27.00;99.20
25628;DHT22;40915;50.826;4.356;2022-07-29T15:27:51;26.90;99.20
25628;DHT22;40915;50.826;4.356;2022-07-29T15:30:17;26.60;99.40
25628;DHT22;40915;50.826;4.356;2022-07-29T15:32:43;26.70;99.60
25628;DHT22;40915;50.826;4.356;2022-07-29T15:35:29;26.60;99.80
25628;DHT22;40915;50.826;4.356;2022-07-29T15:37:55;26.60;99.90
25628;DHT22;40915;50.826;4.356;2022-07-29T15:40:21;26.50;99.80
25628;DHT22;40915;50.826;4.356;2022-07-29T15:42:46;26.40;99.90
25628;DHT22;40915;50.826;4.356;2022-07-29T15:45:12;26.30;99.90
25628;DHT22;40915;50.826;4.356;2022-07-29T15:47:38;26.30;99.90
25628;DHT22;40915;50.826;4.356;2022-07-29T15:50:03;26.30;99.90
25628;DHT22;40915;50.826;4.356;2022-07-29T15:52:29;26.40;99.90
25628;DHT22;40915;50.826;4.356;2022-07-29T15:54:55;26.30;99.90
25628;DHT22;40915;50.826;4.356;2022-07-29T15:57:22;26.20;99.90
25628;DHT22;40915;50.826;4.356;2022-07-29T15:59:49;26.20;99.90
25628;DHT22;40915;50.826;4.356;2022-07-29T16:02:14;26.30;99.90
25628;DHT22;40915;50.826;4.356;2022-07-29T16:04:40;26.40;99.90
25628;DHT22;40915;50.826;4.356;2022-07-29T16:07:06;26.40;99.90
25628;DHT22;40915;50.826;4.356;2022-07-29T16:09:32;26.40;99.90
25628;DHT22;40915;50.826;4.356;2022-07-29T16:11:57;26.60;99.90
25628;DHT22;40915;50.826;4.356;2022-07-29T16:14:23;26.60;99.70
25628;DHT22;40915;50.826;4.356;2022-07-29T16:16:49;26.70;99.70
25628;DHT22;40915;50.826;4.356;2022-07-29T16:19:15;26.50;99.80
25628;DHT22;40915;50.826;4.356;2022-07-29T16:21:40;26.50;99.80
25628;DHT22;40915;50.826;4.356;2022-07-29T16:24:07;26.40;99.70
25628;DHT22;40915;50.826;4.356;2022-07-29T16:26:33;26.40;99.70
25628;DHT22;40915;50.826;4.356;2022-07-29T16:28:59;26.40;99.80
25628;DHT22;40915;50.826;4.356;2022-07-29T16:31:25;26.30;99.90
25628;DHT22;40915;50.826;4.356;2022-07-29T16:33:52;26.50;99.90
25628;DHT22;40915;50.826;4.356;2022-07-29T16:36:18;26.50;99.90
25628;DHT22;40915;50.826;4.356;2022-07-29T16:38:45;26.50;99.90
25628;DHT22;40915;50.826;4.356;2022-07-29T16:41:12;26.40;99.90
25628;DHT22;40915;50.826;4.356;2022-07-29T16:43:38;26.30;99.90
25628;DHT22;40915;50.826;4.356;2022-07-29T16:46:07;26.10;99.90
25628;DHT22;40915;50.826;4.356;2022-07-29T16:48:33;26.10;99.90
25628;DHT22;40915;50.826;4.356;2022-07-29T16:50:58;25.90;99.90
25628;DHT22;40915;50.826;4.356;2022-07-29T16:53:24;25.90;99.90
25628;DHT22;40915;50.826;4.356;2022-07-29T16:55:49;26.00;99.90
25628;DHT22;40915;50.826;4.356;2022-07-29T16:58:15;26.10;99.90
25628;DHT22;40915;50.826;4.356;2022-07-29T17:00:41;26.20;99.90
25628;DHT22;40915;50.826;4.356;2022-07-29T17:03:06;26.30;99.90
25628;DHT22;40915;50.826;4.356;2022-07-29T17:05:32;26.30;99.90
25628;DHT22;40915;50.826;4.356;2022-07-29T17:07:57;26.30;99.90
25628;DHT22;40915;50.826;4.356;2022-07-29T17:10:24;26.40;99.90
25628;DHT22;40915;50.826;4.356;2022-07-29T17:12:50;26.40;99.90
25628;DHT22;40915;50.826;4.356;2022-07-29T17:15:15;26.40;99.90
25628;DHT22;40915;50.826;4.356;2022-07-29T17:17:43;26.30;99.90
25628;DHT22;40915;50.826;4.356;2022-07-29T17:20:10;26.20;99.90
25628;DHT22;40915;50.826;4.356;2022-07-29T17:22:36;26.20;99.90
25628;DHT22;40915;50.826;4.356;2022-07-29T17:25:03;26.20;99.90
25628;DHT22;40915;50.826;4.356;2022-07-29T17:27:29;26.20;99.90
25628;DHT22;40915;50.826;4.356;2022-07-29T17:29:54;26.10;99.90
25628;DHT22;40915;50.826;4.356;2022-07-29T17:32:20;26.00;99.90
25628;DHT22;40915;50.826;4.356;2022-07-29T17:34:46;26.10;99.90
25628;DHT22;40915;50.826;4.356;2022-07-29T17:37:11;26.10;99.90
25628;DHT22;40915;50.826;4.356;2022-07-29T17:39:39;26.00;99.90
25628;DHT22;40915;50.826;4.356;2022-07-29T17:42:07;25.90;99.90
25628;DHT22;40915;50.826;4.356;2022-07-29T17:44:33;25.90;99.90
25628;DHT22;40915;50.826;4.356;2022-07-29T17:46:59;25.90;99.90
25628;DHT22;40915;50.826;4.356;2022-07-29T17:49:24;26.00;99.90
25628;DHT22;40915;50.826;4.356;2022-07-29T17:51:51;26.00;99.90
25628;DHT22;40915;50.826;4.356;2022-07-29T17:54:17;25.80;99.90
25628;DHT22;40915;50.826;4.356;2022-07-29T17:56:43;25.60;99.90
25628;DHT22;40915;50.826;4.356;2022-07-29T17:59:08;25.60;99.90
25628;DHT22;40915;50.826;4.356;2022-07-29T18:01:37;25.60;99.90
25628;DHT22;40915;50.826;4.356;2022-07-29T18:04:06;25.40;99.90
25628;DHT22;40915;50.826;4.356;2022-07-29T18:06:32;25.20;99.90
25628;DHT22;40915;50.826;4.356;2022-07-29T18:08:57;25.10;99.90
25628;DHT22;40915;50.826;4.356;2022-07-29T18:11:23;24.90;99.90
25628;DHT22;40915;50.826;4.356;2022-07-29T18:13:49;24.80;99.90
25628;DHT22;40915;50.826;4.356;2022-07-29T18:16:15;24.60;99.90
25628;DHT22;40915;50.826;4.356;2022-07-29T18:18:42;24.50;99.90
25628;DHT22;40915;50.826;4.356;2022-07-29T18:21:07;24.40;99.90
25628;DHT22;40915;50.826;4.356;2022-07-29T18:23:33;24.30;99.90
25628;DHT22;40915;50.826;4.356;2022-07-29T18:25:58;24.20;99.90
25628;DHT22;40915;50.826;4.356;2022-07-29T18:28:24;24.20;99.90
25628;DHT22;40915;50.826;4.356;2022-07-29T18:30:50;24.20;99.90
25628;DHT22;40915;50.826;4.356;2022-07-29T18:33:16;24.10;99.90
25628;DHT22;40915;50.826;4.356;2022-07-29T18:35:44;24.00;99.90
25628;DHT22;40915;50.826;4.356;2022-07-29T18:38:10;24.00;99.90
25628;DHT22;40915;50.826;4.356;2022-07-29T18:40:36;24.00;99.90
25628;DHT22;40915;50.826;4.356;2022-07-29T18:43:05;23.90;99.90
25628;DHT22;40915;50.826;4.356;2022-07-29T18:45:31;23.90;99.90
25628;DHT22;40915;50.826;4.356;2022-07-29T18:47:56;23.80;99.90
25628;DHT22;40915;50.826;4.356;2022-07-29T18:50:22;23.70;99.90
25628;DHT22;40915;50.826;4.356;2022-07-29T18:52:49;23.60;99.90
25628;DHT22;40915;50.826;4.356;2022-07-29T18:55:15;23.50;99.90
25628;DHT22;40915;50.826;4.356;2022-07-29T18:57:41;23.50;99.90
25628;DHT22;40915;50.826;4.356;2022-07-29T19:00:08;23.40;99.90
25628;DHT22;40915;50.826;4.356;2022-07-29T19:02:33;23.40;99.90
25628;DHT22;40915;50.826;4.356;2022-07-29T19:05:05;23.30;99.90
25628;DHT22;40915;50.826;4.356;2022-07-29T19:07:31;23.30;99.90
25628;DHT22;40915;50.826;4.356;2022-07-29T19:09:57;23.20;99.90
25628;DHT22;40915;50.826;4.356;2022-07-29T19:12:23;23.20;99.90
25628;DHT22;40915;50.826;4.356;2022-07-29T19:14:48;23.10;99.90
25628;DHT22;40915;50.826;4.356;2022-07-29T19:17:14;23.10;99.90
25628;DHT22;40915;50.826;4.356;2022-07-29T19:19:39;23.00;99.90
25628;DHT22;40915;50.826;4.356;2022-07-29T19:22:05;22.90;99.90
25628;DHT22;40915;50.826;4.356;2022-07-29T19:24:31;22.80;99.90
25628;DHT22;40915;50.826;4.356;2022-07-29T19:26:56;22.80;99.90
25628;DHT22;40915;50.826;4.356;2022-07-29T19:29:22;22.80;99.90
25628;DHT22;40915;50.826;4.356;2022-07-29T19:31:50;22.20;99.90
25628;DHT22;40915;50.826;4.356;2022-07-29T19:34:15;22.70;99.90
25628;DHT22;40915;50.826;4.356;2022-07-29T19:36:41;22.60;99.90
25628;DHT22;40915;50.826;4.356;2022-07-29T19:39:07;22.40;99.90
25628;DHT22;40915;50.826;4.356;2022-07-29T19:46:30;22.30;99.90
25628;DHT22;40915;50.826;4.356;2022-07-29T19:48:56;22.30;99.90
25628;DHT22;40915;50.826;4.356;2022-07-29T19:51:22;22.30;99.90
25628;DHT22;40915;50.826;4.356;2022-07-29T19:53:49;22.30;99.90
25628;DHT22;40915;50.826;4.356;2022-07-29T19:56:14;22.10;99.90
25628;DHT22;40915;50.826;4.356;2022-07-29T19:58:40;22.10;99.90
25628;DHT22;40915;50.826;4.356;2022-07-29T20:01:06;22.00;99.90
25628;DHT22;40915;50.826;4.356;2022-07-29T20:03:31;21.80;99.90
25628;DHT22;40915;50.826;4.356;2022-07-29T20:05:57;21.70;99.90
25628;DHT22;40915;50.826;4.356;2022-07-29T20:08:24;21.60;99.90
25628;DHT22;40915;50.826;4.356;2022-07-29T20:10:50;21.60;99.90
25628;DHT22;40915;50.826;4.356;2022-07-29T20:13:15;21.60;99.90
25628;DHT22;40915;50.826;4.356;2022-07-29T20:15:41;21.50;99.90
25628;DHT22;40915;50.826;4.356;2022-07-29T20:18:06;21.40;99.90
25628;DHT22;40915;50.826;4.356;2022-07-29T20:20:32;21.40;99.90
25628;DHT22;40915;50.826;4.356;2022-07-29T20:22:58;21.20;99.90
25628;DHT22;40915;50.826;4.356;2022-07-29T20:25:24;21.20;99.90
25628;DHT22;40915;50.826;4.356;2022-07-29T20:27:50;21.20;99.90
25628;DHT22;40915;50.826;4.356;2022-07-29T20:30:18;21.20;99.90